Главная страница
METAR-TAF:

METAR-TAF

Аэропорты :

Lahaina, Гавайи, США

широта: 21-01N, долгота: 156-38W, высота над уровнем моря: 40 м

METAR: отсутствует

Время: 23:15 (09:15 UTC)

Прогноз

Эта сводка был подготовлена 9 часа и 46 минут назад, в 23:29 UTC
Прогноз действительный с 24-го 00 UTC до 24-го 24 UTC
Ветер 18 Узел от северо-восточный
Видимость: 10 км
небольшая облачность на высоте 2000 фута
небольшая облачность на высоте 4000 фута
С 24-го 0600 UTC
Ветер 15 Узел от северо-восточный с порывами до 24 Узел
Видимость: 10 км
небольшая облачность на высоте 2500 фута
Рассеянная облачность на высоте 4000 фута
ливни в окрестностях
С 24-го 2000 UTC
Ветер 19 Узел от северо-восточный
Видимость: 10 км
Отдельные облака на высоте 1500 фута
Рассеянная облачность на высоте 2500 фута
ливни в окрестностях,

TAF: PHJH 232329Z 2400/2424 05018KT P6SM FEW020 FEW040 FM240600 05015G24KT P6SM VCSH FEW025 BKN040 FM242000 05019KT P6SM VCSH SCT015 BKN025

Метеонаблюдения и прогнозы для более 4000 аэропортов (сводки METAR и TAF).

Имеющиеся станции представлены на карте желтыми и красными точками.

Чтобы увидеть название станции, наведите на нее мышь.

Затем щелкните, чтобы увидеть метеонаблюдения и метеопрогнозы.

Управление картой: чтобы увеличить масштаб, щелкните зеленые кнопки с черным крестиком; чтобы уменьшить масштаб, щелкните зеленую кнопку с тире; для просмотра соседних карт щелкайте зеленые стрелки.


METAR-TAF: